Time;durP1;ratioP1;P1;durP2;ratioP2;P2;SDS_P1;SDS_P2;PMS_P1;PMS_P2;Temp;Humidity;BMP_temperature;BMP_pressure;BME280_temperature;BME280_humidity;BME280_pressure;Samples;Min_cycle;Max_cycle;Signal;HPM_P1;HPM_P2
2022/05/21 00:00:26;;;;;;;5.17;3.12;;;;;;;16.72;50.54;99616.32;1679663;85;20996;-57
2022/05/21 00:02:56;;;;;;;5.78;3.22;;;;;;;16.72;50.69;99621.02;1679682;85;21028;-56
2022/05/21 00:05:26;;;;;;;5.45;3.33;;;;;;;16.70;50.50;99621.27;1679590;85;21029;-60
2022/05/21 00:07:54;;;;;;;6.25;3.40;;;;;;;16.70;50.38;99628.19;1679599;85;21024;-56
2022/05/21 00:10:24;;;;;;;8.48;3.33;;;;;;;16.68;50.65;99625.39;1679563;85;21444;-56
2022/05/21 00:12:52;;;;;;;5.90;3.33;;;;;;;16.63;50.71;99623.36;1679595;85;21514;-56
2022/05/21 00:15:23;;;;;;;5.37;2.92;;;;;;;16.60;50.82;99629.95;1679618;85;20969;-57
2022/05/21 00:17:52;;;;;;;8.63;3.20;;;;;;;16.58;51.17;99620.53;1653669;85;21020;-56
2022/05/21 00:23:22;;;;;;;4.97;3.00;;;;;;;16.55;51.45;99612.74;1679669;85;21436;-57
2022/05/21 00:26:02;;;;;;;7.45;2.90;;;;;;;16.55;51.47;99615.51;1620436;88;21024;-56
2022/05/21 00:28:32;;;;;;;4.92;2.85;;;;;;;16.58;51.55;99610.02;1565033;92;21058;-57
2022/05/21 00:31:03;;;;;;;8.13;2.80;;;;;;;16.60;51.60;99607.28;1574043;91;21091;-55
2022/05/21 00:33:32;;;;;;;6.25;2.80;;;;;;;16.62;51.77;99616.16;1563907;92;21139;-56
2022/05/21 00:36:01;;;;;;;7.17;2.80;;;;;;;16.65;51.86;99611.53;1574033;91;21032;-56
2022/05/21 00:38:30;;;;;;;8.63;2.98;;;;;;;16.69;52.05;99610.47;1563779;92;21021;-56
2022/05/21 00:40:59;;;;;;;5.05;3.00;;;;;;;16.73;52.19;99611.08;1574018;91;21218;-57
2022/05/21 00:43:45;;;;;;;5.00;2.90;;;;;;;16.75;52.35;99613.05;1563745;91;21085;-56
2022/05/21 00:46:26;;;;;;;7.00;3.25;;;;;;;16.77;52.40;99611.41;1574174;91;21065;-57
2022/05/21 00:49:06;;;;;;;3.85;2.80;;;;;;;16.78;52.54;99606.16;1563750;92;21448;-57
2022/05/21 00:51:50;;;;;;;9.45;2.52;;;;;;;16.79;52.67;99612.81;1627937;88;21036;-56
2022/05/21 00:54:20;;;;;;;4.70;2.60;;;;;;;16.81;52.81;99619.47;1620318;88;21070;-57
2022/05/21 00:57:02;;;;;;;6.15;3.15;;;;;;;16.79;53.13;99613.36;1679584;85;21089;-56
2022/05/21 00:59:51;;;;;;;3.92;2.55;;;;;;;16.78;53.29;99619.44;1679598;85;21021;-55
2022/05/21 01:02:24;;;;;;;4.67;2.65;;;;;;;16.78;53.52;99619.44;1679709;85;21439;-57
2022/05/21 01:04:56;;;;;;;3.87;2.72;;;;;;;16.81;53.62;99611.17;1653312;85;20973;-59
2022/05/21 01:07:25;;;;;;;7.30;2.80;;;;;;;16.84;53.72;99615.36;1679619;85;21012;-56
2022/05/21 01:09:55;;;;;;;5.62;2.75;;;;;;;16.85;53.80;99617.02;1679624;85;21477;-56
2022/05/21 01:12:29;;;;;;;4.33;2.58;;;;;;;16.83;54.21;99621.44;1679511;85;21020;-57
2022/05/21 01:15:02;;;;;;;6.42;2.77;;;;;;;16.85;54.36;99625.33;1679760;85;20965;-55
2022/05/21 01:17:30;;;;;;;5.35;2.85;;;;;;;16.85;54.47;99623.94;1679596;85;21397;-57
2022/05/21 01:20:09;;;;;;;8.48;3.00;;;;;;;16.85;54.75;99623.94;1675429;85;21095;-56
2022/05/21 01:22:45;;;;;;;5.80;2.95;;;;;;;16.86;54.88;99623.69;1679549;85;21016;-56
2022/05/21 01:25:17;;;;;;;9.35;3.12;;;;;;;16.86;55.04;99617.31;1679564;85;21059;-56
2022/05/21 01:27:46;;;;;;;4.35;2.47;;;;;;;16.86;55.38;99615.94;1679855;85;21460;-57
2022/05/21 01:30:25;;;;;;;7.35;3.47;;;;;;;16.85;55.67;99613.71;1679550;85;21029;-57
2022/05/21 01:32:54;;;;;;;6.40;2.85;;;;;;;16.84;55.90;99616.19;1679566;85;20984;-57
2022/05/21 01:35:22;;;;;;;11.18;3.85;;;;;;;16.85;56.08;99617.86;1679502;85;21020;-56
2022/05/21 01:37:51;;;;;;;7.28;2.83;;;;;;;16.87;56.15;99614.84;1679720;85;21001;-56
2022/05/21 01:40:20;;;;;;;4.55;2.90;;;;;;;16.86;56.35;99614.00;1679732;85;21061;-56
2022/05/21 01:44:37;;;;;;;7.25;2.85;;;;;;;16.87;56.44;99606.54;1679644;85;21345;-57
2022/05/21 01:45:19;;;;;;;6.60;3.22;;;;;;;16.87;56.67;99609.30;1678812;85;20984;-56
2022/05/21 01:47:48;;;;;;;7.67;3.20;;;;;;;16.86;56.78;99604.31;1679526;85;20989;-56
2022/05/21 01:50:17;;;;;;;6.80;3.10;;;;;;;16.85;56.80;99608.18;1679523;85;21020;-56
2022/05/21 01:52:45;;;;;;;5.17;3.22;;;;;;;16.84;56.96;99604.28;1679659;85;21432;-56
2022/05/21 01:55:14;;;;;;;4.92;3.20;;;;;;;16.83;57.04;99610.91;1679547;85;20989;-56
2022/05/21 01:57:42;;;;;;;7.45;3.10;;;;;;;16.82;57.24;99614.23;1680335;85;21028;-57
2022/05/21 02:00:12;;;;;;;6.75;3.12;;;;;;;16.80;57.48;99602.03;1682432;85;21448;-56
2022/05/21 02:02:42;;;;;;;6.87;3.20;;;;;;;16.81;57.53;99594.58;1623729;87;21061;-57
2022/05/21 02:05:11;;;;;;;6.05;3.05;;;;;;;16.82;57.63;99599.02;1625131;88;21038;-59
2022/05/21 02:07:41;;;;;;;10.43;3.22;;;;;;;16.82;57.69;99600.39;1656026;87;21397;-57
2022/05/21 02:10:10;;;;;;;6.87;3.40;;;;;;;16.79;57.94;99590.68;1682518;85;21425;-56
2022/05/21 02:12:39;;;;;;;6.70;3.72;;;;;;;16.78;58.04;99592.33;1682530;85;21012;-57
2022/05/21 02:15:10;;;;;;;4.83;3.12;;;;;;;16.79;58.17;99592.61;1682594;85;20989;-57
2022/05/21 02:17:40;;;;;;;4.50;2.92;;;;;;;16.78;58.36;99597.31;1682512;85;21270;-56
2022/05/21 02:20:09;;;;;;;7.08;3.35;;;;;;;16.77;58.60;99603.10;1682435;85;21016;-55
2022/05/21 02:22:38;;;;;;;5.28;3.12;;;;;;;16.77;58.73;99606.70;1682482;85;21051;-56
2022/05/21 02:25:08;;;;;;;7.55;3.20;;;;;;;16.77;59.02;99597.56;1682493;85;21028;-57
2022/05/21 02:27:38;;;;;;;7.03;3.05;;;;;;;16.77;58.93;99595.64;1682624;85;20993;-55
2022/05/21 02:30:08;;;;;;;6.17;3.10;;;;;;;16.80;58.97;99599.27;1682630;85;21025;-57
2022/05/21 02:32:37;;;;;;;4.58;3.10;;;;;;;16.80;59.09;99595.13;1682620;85;20973;-55
2022/05/21 02:35:06;;;;;;;6.60;3.37;;;;;;;16.81;59.11;99591.81;1682476;85;21016;-57
2022/05/21 02:40:24;;;;;;;6.95;3.30;;;;;;;16.83;59.24;99594.31;1682560;85;21020;-56
2022/05/21 02:42:54;;;;;;;7.62;3.75;;;;;;;16.84;59.35;99594.60;1682524;85;21012;-56
2022/05/21 02:45:26;;;;;;;10.40;3.40;;;;;;;16.84;59.28;99602.91;1682463;85;20964;-57
2022/05/21 02:47:55;;;;;;;7.47;3.35;;;;;;;16.84;59.40;99593.22;1682471;85;21487;-56
2022/05/21 02:50:28;;;;;;;5.25;3.05;;;;;;;16.85;59.46;99591.58;1682407;84;20984;-57
2022/05/21 02:52:56;;;;;;;7.20;3.27;;;;;;;16.86;59.63;99591.87;1682490;85;21424;-55
2022/05/21 02:55:25;;;;;;;6.10;3.62;;;;;;;16.86;59.70;99582.73;1682446;84;20996;-58
2022/05/21 02:57:53;;;;;;;5.78;3.33;;;;;;;16.85;59.78;99587.42;1682438;85;21020;-57
2022/05/21 03:00:26;;;;;;;6.62;3.67;;;;;;;16.85;59.80;99584.66;1682478;84;21028;-56
2022/05/21 03:02:56;;;;;;;6.67;3.62;;;;;;;16.85;59.83;99579.13;1682432;85;21468;-57
2022/05/21 03:05:25;;;;;;;8.13;3.45;;;;;;;16.87;59.92;99585.78;1682506;84;20980;-56
2022/05/21 03:07:53;;;;;;;9.40;3.60;;;;;;;16.87;60.00;99583.02;1682618;85;21032;-57
2022/05/21 03:10:27;;;;;;;6.08;3.30;;;;;;;16.91;59.95;99590.58;1682181;85;21437;-55
2022/05/21 03:12:58;;;;;;;7.85;3.10;;;;;;;16.96;60.01;99589.80;1682492;85;21016;-56
2022/05/21 03:15:34;;;;;;;8.10;3.40;;;;;;;16.97;60.05;99576.25;1682453;85;21416;-56
2022/05/21 03:18:07;;;;;;;6.95;3.30;;;;;;;16.98;60.03;99576.53;1682434;85;21008;-58
2022/05/21 03:20:37;;;;;;;6.17;3.30;;;;;;;17.01;59.98;99577.40;1682399;85;21411;-57
2022/05/21 03:23:06;;;;;;;5.20;3.17;;;;;;;17.03;59.95;99566.91;1682492;85;21020;-56
2022/05/21 03:25:35;;;;;;;10.88;3.60;;;;;;;17.04;59.95;99564.42;1682463;85;21016;-58
2022/05/21 03:28:05;;;;;;;4.95;3.27;;;;;;;17.04;59.95;99561.66;1682556;84;21024;-56
2022/05/21 03:30:34;;;;;;;6.28;3.77;;;;;;;17.05;59.99;99563.33;1682494;85;21020;-57
2022/05/21 03:33:03;;;;;;;7.47;3.40;;;;;;;17.05;60.00;99565.55;1682446;85;21473;-56
2022/05/21 03:35:34;;;;;;;6.75;4.00;;;;;;;17.06;60.02;99567.77;1682341;85;21107;-56
2022/05/21 03:38:04;;;;;;;8.85;4.10;;;;;;;17.08;60.18;99562.26;1623705;88;21036;-57
2022/05/21 03:40:32;;;;;;;6.33;3.90;;;;;;;17.10;60.21;99557.30;1625069;88;21506;-57
2022/05/21 03:43:02;;;;;;;7.33;3.70;;;;;;;17.14;60.19;99561.77;1655829;87;21032;-56
2022/05/21 03:45:31;;;;;;;12.40;3.50;;;;;;;17.18;60.28;99552.39;1682460;85;20987;-56
2022/05/21 03:47:59;;;;;;;7.45;3.50;;;;;;;17.20;60.27;99555.73;1682446;85;21024;-60
2022/05/21 03:50:31;;;;;;;10.40;3.80;;;;;;;17.21;60.27;99547.16;1682418;85;21416;-56
2022/05/21 03:53:00;;;;;;;6.60;3.45;;;;;;;17.26;60.26;99536.14;1682563;85;21459;-57
2022/05/21 03:55:30;;;;;;;7.42;3.50;;;;;;;17.32;60.30;99546.70;1682425;85;21013;-56
2022/05/21 03:57:59;;;;;;;6.05;4.25;;;;;;;17.35;60.35;99540.64;1682403;85;20961;-56
2022/05/21 04:00:27;;;;;;;9.75;3.75;;;;;;;17.40;60.31;99537.38;1682515;85;21024;-57
2022/05/21 04:02:58;;;;;;;6.80;3.27;;;;;;;17.47;60.31;99525.24;1683921;85;21068;-56
2022/05/21 04:05:28;;;;;;;7.40;3.45;;;;;;;17.53;60.28;99522.25;1682378;85;21012;-56
2022/05/21 04:07:57;;;;;;;5.17;3.55;;;;;;;17.60;60.28;99503.50;1682439;85;21012;-58
2022/05/21 04:10:27;;;;;;;6.45;3.65;;;;;;;17.65;60.20;99507.69;1682443;85;20996;-56
2022/05/21 04:12:56;;;;;;;7.42;3.47;;;;;;;17.71;60.11;99516.36;1682427;85;21000;-57
2022/05/21 04:15:25;;;;;;;10.85;3.42;;;;;;;17.78;60.05;99516.13;1682472;85;20976;-57
2022/05/21 04:17:55;;;;;;;5.97;3.77;;;;;;;17.84;59.93;99512.28;1682388;85;21482;-57
2022/05/21 04:20:24;;;;;;;10.63;4.50;;;;;;;17.90;59.83;99511.77;1682510;85;21032;-57
2022/05/21 04:22:53;;;;;;;8.98;3.75;;;;;;;17.93;59.72;99512.06;1682620;85;21455;-56
2022/05/21 04:25:21;;;;;;;9.13;3.95;;;;;;;17.98;59.62;99520.41;1682622;84;21028;-56
2022/05/21 04:27:50;;;;;;;6.12;3.92;;;;;;;18.00;59.58;99536.77;1682496;85;21020;-56
2022/05/21 04:30:25;;;;;;;11.18;3.87;;;;;;;18.00;59.64;99526.52;1682467;85;20991;-58
2022/05/21 04:32:54;;;;;;;9.68;4.03;;;;;;;17.99;59.67;99525.41;1682834;85;21016;-57
2022/05/21 04:35:22;;;;;;;6.67;3.67;;;;;;;18.00;59.74;99526.52;1682631;85;20992;-58
2022/05/21 04:37:51;;;;;;;7.50;4.20;;;;;;;18.03;59.76;99531.53;1682529;85;21028;-59
2022/05/21 04:40:22;;;;;;;10.10;4.05;;;;;;;18.09;59.85;99530.17;1682492;84;21012;-58
2022/05/21 04:42:50;;;;;;;9.68;3.92;;;;;;;18.15;59.72;99521.63;1682483;85;21072;-56
2022/05/21 04:45:19;;;;;;;10.98;3.87;;;;;;;18.23;59.65;99520.30;1682767;85;21353;-57
2022/05/21 04:47:48;;;;;;;8.63;4.15;;;;;;;18.31;59.51;99517.85;1682711;85;20993;-58
2022/05/21 04:50:17;;;;;;;8.75;3.80;;;;;;;18.42;59.46;99513.73;1682643;85;21025;-58
2022/05/21 04:52:45;;;;;;;11.55;6.08;;;;;;;18.50;59.33;99511.27;1682514;85;21032;-57
2022/05/21 04:55:15;;;;;;;9.13;4.35;;;;;;;18.65;59.16;99516.91;1682488;85;21028;-57
2022/05/21 04:57:46;;;;;;;7.35;4.08;;;;;;;18.83;58.61;99504.47;1682783;85;21054;-59
2022/05/21 05:00:17;;;;;;;6.42;4.03;;;;;;;19.05;58.29;99500.66;1682424;85;21028;-57
2022/05/21 05:02:47;;;;;;;6.15;3.77;;;;;;;19.30;57.75;99498.74;1682554;85;21008;-57
2022/05/21 05:05:17;;;;;;;12.00;4.62;;;;;;;19.53;57.15;99489.08;1682515;85;21400;-56
2022/05/21 05:07:47;;;;;;;6.28;4.22;;;;;;;19.76;56.53;99497.39;1682512;85;21032;-56
2022/05/21 05:10:15;;;;;;;6.62;4.03;;;;;;;19.94;55.86;99496.80;1682493;85;20965;-56
2022/05/21 05:12:45;;;;;;;7.97;3.87;;;;;;;20.08;55.27;99487.88;1629849;88;21068;-56
2022/05/21 05:15:14;;;;;;;7.10;4.08;;;;;;;20.13;55.11;99476.73;1575689;91;21097;-57
2022/05/21 05:17:43;;;;;;;7.15;4.00;;;;;;;20.20;55.03;99485.08;1629903;87;21047;-58
2022/05/21 05:20:12;;;;;;;8.90;4.10;;;;;;;20.33;54.86;99478.08;1575631;91;21573;-57
2022/05/21 05:22:40;;;;;;;9.73;4.17;;;;;;;20.46;54.32;99469.15;1629744;88;21107;-56
2022/05/21 05:25:10;;;;;;;5.92;4.10;;;;;;;20.61;54.14;99473.80;1575722;91;21049;-57
2022/05/21 05:27:39;;;;;;;7.55;4.35;;;;;;;20.73;53.83;99470.68;1629786;88;21035;-57
2022/05/21 05:30:09;;;;;;;9.05;4.05;;;;;;;20.82;53.39;99467.59;1575624;91;21414;-56
2022/05/21 05:32:38;;;;;;;7.25;4.12;;;;;;;20.84;53.31;99468.13;1600721;89;21079;-57
2022/05/21 05:35:07;;;;;;;6.58;4.50;;;;;;;20.86;53.24;99470.07;1629906;88;21085;-57
2022/05/21 05:37:36;;;;;;;7.45;4.10;;;;;;;20.86;53.57;99465.34;1604919;88;21434;-59
2022/05/21 05:40:07;;;;;;;4.85;3.83;;;;;;;20.94;53.56;99454.70;1655848;87;21005;-57
2022/05/21 05:42:37;;;;;;;9.58;4.10;;;;;;;21.06;53.23;99461.58;1682525;85;20973;-57
2022/05/21 05:45:12;;;;;;;9.98;4.53;;;;;;;21.08;53.00;99457.94;1682564;84;21021;-57
2022/05/21 05:47:43;;;;;;;11.57;4.45;;;;;;;21.05;52.94;99455.73;1682493;85;21047;-57
2022/05/21 05:50:11;;;;;;;10.28;4.30;;;;;;;21.03;52.96;99451.58;1682393;85;21100;-57
2022/05/21 05:52:41;;;;;;;8.23;4.40;;;;;;;20.99;53.05;99445.75;1603982;89;21071;-56
2022/05/21 05:55:10;;;;;;;6.42;3.98;;;;;;;20.98;53.03;99445.48;1551577;92;21037;-57
2022/05/21 05:57:39;;;;;;;5.47;4.20;;;;;;;20.98;53.29;99437.69;1603953;89;21130;-56
2022/05/21 06:00:08;;;;;;;8.73;4.30;;;;;;;20.99;53.57;99445.75;1548199;92;21093;-59
2022/05/21 06:02:58;;;;;;;10.07;4.20;;;;;;;21.10;53.08;99433.98;1552652;92;21104;-57
2022/05/21 06:05:32;;;;;;;8.73;4.30;;;;;;;21.10;53.08;99433.98;1544326;93;21121;-56
2022/05/21 06:08:03;;;;;;;7.60;4.30;;;;;;;21.14;52.55;99433.10;1552513;92;21011;-58
2022/05/21 06:10:36;;;;;;;9.63;4.15;;;;;;;21.12;52.74;99429.77;1544466;93;21052;-57
2022/05/21 06:13:08;;;;;;;6.62;4.10;;;;;;;21.17;52.82;99435.30;1552407;92;21471;-57
2022/05/21 06:15:38;;;;;;;8.68;4.53;;;;;;;21.25;52.61;99428.87;1544338;93;21485;-57
2022/05/21 06:18:16;;;;;;;6.33;3.90;;;;;;;21.30;52.68;99431.61;1618898;88;21064;-58
2022/05/21 06:20:46;;;;;;;7.60;4.25;;;;;;;21.37;52.64;99432.11;1625313;88;21026;-57
2022/05/21 06:23:15;;;;;;;7.30;3.98;;;;;;;21.41;52.07;99424.27;1640510;87;21030;-57
2022/05/21 06:25:43;;;;;;;7.80;4.22;;;;;;;21.42;52.39;99420.34;1687463;85;21011;-59
2022/05/21 06:28:12;;;;;;;11.00;4.50;;;;;;;21.45;52.30;99415.58;1687481;85;21008;-58
2022/05/21 06:30:42;;;;;;;11.93;4.15;;;;;;;21.49;52.06;99417.25;1687445;85;21432;-57
2022/05/21 06:33:28;;;;;;;9.38;4.50;;;;;;;21.51;52.24;99416.39;1687389;85;21043;-57
2022/05/21 06:36:10;;;;;;;8.68;4.10;;;;;;;21.53;52.11;99422.51;1687653;85;20996;-58
2022/05/21 06:38:39;;;;;;;10.10;4.65;;;;;;;21.54;51.83;99423.34;1687379;85;20989;-58
2022/05/21 06:41:09;;;;;;;7.03;4.30;;;;;;;21.50;51.90;99417.52;1687302;85;21040;-58
2022/05/21 06:43:39;;;;;;;7.37;4.33;;;;;;;21.50;52.00;99423.09;1687402;85;20968;-57
2022/05/21 06:46:09;;;;;;;8.00;4.12;;;;;;;21.58;52.08;99421.63;1687393;85;21020;-57
2022/05/21 06:48:38;;;;;;;7.55;4.30;;;;;;;21.62;51.77;99429.67;1687419;85;21397;-57
2022/05/21 06:51:07;;;;;;;9.73;4.45;;;;;;;21.70;51.84;99422.06;1687382;85;21004;-56
2022/05/21 06:53:36;;;;;;;7.15;4.20;;;;;;;21.82;51.74;99411.33;1687623;85;20983;-56
2022/05/21 06:56:08;;;;;;;7.25;4.35;;;;;;;21.99;51.29;99426.20;1687384;85;21028;-55
2022/05/21 06:58:39;;;;;;;9.35;4.05;;;;;;;22.08;50.62;99423.05;1687556;85;21036;-57
2022/05/21 07:01:07;;;;;;;7.05;4.35;;;;;;;22.10;50.25;99418.00;1687039;85;21436;-59
2022/05/21 07:03:36;;;;;;;6.28;4.35;;;;;;;22.08;50.29;99413.28;1686851;85;21447;-57
2022/05/21 07:08:54;;;;;;;9.25;4.30;;;;;;;22.17;50.32;99410.70;1687190;85;20977;-59
2022/05/21 07:11:23;;;;;;;9.73;4.28;;;;;;;22.27;49.93;99404.98;1686903;85;21016;-57
2022/05/21 07:13:52;;;;;;;9.70;4.40;;;;;;;22.28;49.81;99404.69;1686857;85;20992;-57
2022/05/21 07:16:21;;;;;;;8.08;4.10;;;;;;;22.25;49.92;99402.50;1686839;85;21016;-58
2022/05/21 07:18:49;;;;;;;7.03;4.17;;;;;;;22.24;49.87;99405.02;1686910;85;20989;-56
2022/05/21 07:21:18;;;;;;;12.53;4.58;;;;;;;22.31;49.96;99399.91;1686763;85;21036;-57
2022/05/21 07:23:48;;;;;;;9.28;4.28;;;;;;;22.37;49.72;99393.13;1686953;85;20985;-56
2022/05/21 07:26:18;;;;;;;11.05;4.53;;;;;;;22.42;49.61;99390.26;1687041;85;21048;-56
2022/05/21 07:28:46;;;;;;;9.45;4.45;;;;;;;22.48;49.47;99377.06;1686889;85;20964;-57
2022/05/21 07:31:18;;;;;;;5.97;4.12;;;;;;;22.57;49.49;99385.59;1686844;85;21004;-57
2022/05/21 07:33:47;;;;;;;10.10;4.35;;;;;;;22.73;49.02;99363.28;1686829;85;21481;-56
2022/05/21 07:36:16;;;;;;;9.25;4.28;;;;;;;22.89;48.79;99368.95;1686876;85;21008;-56
2022/05/21 07:38:44;;;;;;;6.87;4.03;;;;;;;22.99;48.40;99366.55;1686884;85;20996;-58
2022/05/21 07:43:54;;;;;;;7.87;4.12;;;;;;;23.12;48.01;99353.20;1686820;85;21028;-57
2022/05/21 07:46:23;;;;;;;9.30;4.85;;;;;;;23.11;47.82;99344.55;1687024;85;21016;-56
2022/05/21 07:48:51;;;;;;;7.60;4.30;;;;;;;23.09;47.82;99350.45;1686579;85;21017;-60
2022/05/21 07:51:20;;;;;;;10.90;4.78;;;;;;;23.11;47.61;99342.33;1686770;85;21011;-57
2022/05/21 07:53:50;;;;;;;12.28;4.80;;;;;;;23.11;47.70;99338.13;1650806;85;21005;-59
2022/05/21 07:56:19;;;;;;;6.35;4.35;;;;;;;23.11;47.83;99333.38;1601020;86;21076;-59
2022/05/21 07:58:49;;;;;;;6.45;4.25;;;;;;;23.14;47.86;99330.53;1649990;87;21034;-58
2022/05/21 08:01:19;;;;;;;7.60;4.60;;;;;;;23.27;47.94;99327.77;1695110;83;21013;-58
2022/05/21 08:03:49;;;;;;;5.70;4.03;;;;;;;23.46;47.68;99323.53;1565803;91;21010;-61
2022/05/21 08:06:17;;;;;;;17.82;4.90;;;;;;;23.70;46.72;99328.39;1565929;91;21546;-56
2022/05/21 08:08:46;;;;;;;10.08;4.03;;;;;;;23.88;46.35;99323.00;1565818;92;21045;-56
2022/05/21 08:11:15;;;;;;;7.83;3.90;;;;;;;24.01;45.61;99325.78;1568763;90;21028;-59
2022/05/21 08:13:44;;;;;;;7.08;4.20;;;;;;;24.14;45.23;99325.54;1598880;90;21087;-56
2022/05/21 08:16:14;;;;;;;9.83;3.83;;;;;;;24.23;44.36;99323.66;1598759;90;21024;-57
2022/05/21 08:18:43;;;;;;;9.05;4.30;;;;;;;24.26;44.46;99322.20;1598791;90;21104;-58
2022/05/21 08:21:12;;;;;;;7.50;4.25;;;;;;;24.27;44.47;99317.71;1609820;86;21039;-58
2022/05/21 08:29:16;;;;;;;7.00;3.87;;;;;;;24.25;44.98;99319.97;1690137;85;21024;-58
2022/05/21 08:31:46;;;;;;;5.53;3.95;;;;;;;24.28;44.98;99320.77;1656460;85;21008;-55
2022/05/21 08:34:14;;;;;;;8.15;4.17;;;;;;;24.30;44.49;99318.48;1647663;86;21009;-56
2022/05/21 08:36:43;;;;;;;8.10;3.83;;;;;;;24.34;44.53;99313.08;1679168;85;21036;-58
2022/05/21 08:39:11;;;;;;;9.70;4.15;;;;;;;24.43;44.55;99308.39;1692462;85;21039;-56
2022/05/21 08:41:57;;;;;;;10.50;4.30;;;;;;;24.48;44.18;99306.03;1692438;85;21450;-57
2022/05/21 08:44:46;;;;;;;15.30;4.20;;;;;;;24.52;44.06;99298.66;1665917;85;21043;-57
2022/05/21 08:47:22;;;;;;;6.12;3.90;;;;;;;24.58;43.96;99301.02;1692047;84;21056;-58
2022/05/21 08:49:56;;;;;;;8.13;4.00;;;;;;;24.66;43.65;99297.45;1692591;85;21019;-58
2022/05/21 08:53:00;;;;;;;7.03;4.03;;;;;;;24.70;43.69;99296.25;1692549;85;21032;-60
2022/05/21 08:55:34;;;;;;;8.23;3.98;;;;;;;24.72;43.10;99295.39;1662351;86;21067;-56
2022/05/21 08:58:19;;;;;;;13.90;4.30;;;;;;;24.73;43.08;99288.64;1662239;86;21015;-58
2022/05/21 09:00:48;;;;;;;5.72;3.58;;;;;;;24.78;43.24;99287.11;1669603;83;21627;-61
2022/05/21 09:03:19;;;;;;;5.67;3.30;;;;;;;24.87;43.28;99293.61;1683699;85;21036;-59
2022/05/21 09:06:21;;;;;;;7.25;3.70;;;;;;;24.99;42.46;99283.24;1684571;85;21031;-57
2022/05/21 09:09:10;;;;;;;9.23;4.00;;;;;;;25.07;42.31;99283.05;1688050;85;20988;-59
2022/05/21 09:11:52;;;;;;;9.03;3.70;;;;;;;25.13;41.75;99280.35;1687888;85;21019;-60
2022/05/21 09:14:41;;;;;;;9.13;3.70;;;;;;;25.11;41.83;99273.67;1688163;85;21388;-58
2022/05/21 09:17:16;;;;;;;4.90;3.17;;;;;;;25.09;41.88;99268.13;1688169;85;21020;-58
2022/05/21 09:19:58;;;;;;;6.60;3.30;;;;;;;25.03;41.48;99268.84;1680537;85;21028;-60
2022/05/21 09:22:29;;;;;;;7.17;3.52;;;;;;;24.99;41.60;99267.83;1680284;85;21016;-60
2022/05/21 09:25:03;;;;;;;7.22;3.50;;;;;;;24.94;41.90;99262.33;1677375;85;21000;-56
2022/05/21 09:27:35;;;;;;;6.85;3.37;;;;;;;24.95;42.17;99266.21;1682910;85;21040;-57
2022/05/21 09:30:22;;;;;;;6.05;3.20;;;;;;;24.91;41.89;99277.80;1670270;85;21060;-57
2022/05/21 09:32:56;;;;;;;10.25;3.60;;;;;;;24.78;41.90;99294.12;1689803;85;21007;-57
2022/05/21 09:35:31;;;;;;;6.75;3.15;;;;;;;24.58;42.15;99300.19;1687822;85;21013;-57
2022/05/21 09:38:13;;;;;;;9.58;3.50;;;;;;;24.43;43.47;99313.98;1684842;85;21012;-55
2022/05/21 09:40:42;;;;;;;7.15;3.80;;;;;;;24.26;44.21;99331.42;1681843;85;21080;-58
2022/05/21 09:46:28;;;;;;;5.92;3.90;;;;;;;23.75;49.32;99358.80;1684845;85;21016;-57
2022/05/21 09:49:22;;;;;;;11.10;4.47;;;;;;;23.32;51.97;99360.39;1684974;85;21010;-59
2022/05/21 09:51:56;;;;;;;8.63;4.20;;;;;;;22.91;54.59;99351.31;1684271;85;21058;-57
2022/05/21 09:54:35;;;;;;;10.93;4.65;;;;;;;22.45;57.39;99346.39;1685728;85;21003;-58
2022/05/21 09:57:04;;;;;;;9.45;4.53;;;;;;;21.97;60.61;99342.81;1688062;85;21011;-58
2022/05/21 09:59:34;;;;;;;9.03;4.20;;;;;;;21.54;63.30;99333.58;1687916;85;21458;-59
2022/05/21 10:02:15;;;;;;;10.25;4.78;;;;;;;21.17;65.61;99321.09;1692796;83;21610;-60
2022/05/21 10:04:56;;;;;;;10.70;4.95;;;;;;;20.89;67.43;99326.09;1694757;84;21420;-61
2022/05/21 10:13:43;;;;;;;9.33;4.53;;;;;;;20.25;72.89;99318.72;1696206;84;21416;-56
2022/05/21 10:16:29;;;;;;;10.03;4.97;;;;;;;20.08;74.62;99320.45;1695871;84;21039;-56
2022/05/21 10:19:04;;;;;;;9.20;5.17;;;;;;;19.94;75.81;99309.69;1696051;84;20983;-57
2022/05/21 10:21:55;;;;;;;7.80;5.37;;;;;;;19.83;77.50;99317.25;1695906;84;20983;-59
2022/05/21 10:24:44;;;;;;;10.10;5.37;;;;;;;19.76;78.58;99315.89;1695942;84;21461;-58
2022/05/21 10:27:50;;;;;;;7.70;4.92;;;;;;;19.70;79.81;99308.69;1695991;84;20987;-58
2022/05/21 10:31:06;;;;;;;11.75;5.42;;;;;;;19.68;80.83;99294.25;1695977;84;20991;-58
2022/05/21 10:33:58;;;;;;;11.60;6.47;;;;;;;19.59;81.72;99271.77;1695897;84;21042;-58
2022/05/21 10:37:20;;;;;;;10.63;6.20;;;;;;;19.56;82.83;99255.11;1696100;84;21015;-57
2022/05/21 10:40:11;;;;;;;8.03;5.62;;;;;;;19.52;82.92;99262.88;1695848;84;20999;-60
2022/05/21 10:43:07;;;;;;;10.75;6.60;;;;;;;19.45;83.96;99259.55;1687317;83;21035;-57
2022/05/21 10:45:50;;;;;;;7.33;5.67;;;;;;;19.40;84.60;99247.06;1695891;84;21011;-56
2022/05/21 10:49:01;;;;;;;10.18;6.35;;;;;;;19.39;84.81;99249.56;1695415;84;21411;-62
2022/05/21 10:51:36;;;;;;;9.53;5.40;;;;;;;19.35;84.72;99247.09;1695798;84;21051;-61
2022/05/21 10:54:38;;;;;;;12.20;5.62;;;;;;;19.28;84.58;99269.05;1696231;84;21042;-60
2022/05/21 10:57:57;;;;;;;12.00;6.35;;;;;;;19.24;84.73;99269.34;1695336;83;21023;-57
2022/05/21 11:00:40;;;;;;;10.03;6.00;;;;;;;19.15;85.96;99260.48;1696886;84;21451;-57
2022/05/21 11:03:41;;;;;;;15.28;8.55;;;;;;;19.06;87.17;99246.89;1684196;84;21100;-58
2022/05/21 11:06:18;;;;;;;26.23;16.90;;;;;;;18.98;88.09;99239.42;1683279;85;21020;-59
2022/05/21 11:09:15;;;;;;;25.95;14.60;;;;;;;18.94;89.15;99222.22;1684690;84;21008;-58
2022/05/21 11:12:04;;;;;;;27.02;16.37;;;;;;;18.96;90.20;99217.22;1700794;83;21036;-60
2022/05/21 11:14:55;;;;;;;16.93;11.43;;;;;;;19.02;91.71;99211.09;1700612;84;20995;-59
2022/05/21 11:17:44;;;;;;;15.80;9.15;;;;;;;19.11;92.74;99201.90;1700611;83;21047;-58
2022/05/21 11:20:17;;;;;;;9.68;7.08;;;;;;;19.19;93.28;99197.16;1669171;86;21007;-59
2022/05/21 11:23:22;;;;;;;9.65;7.47;;;;;;;19.25;93.12;99194.63;1638352;87;21014;-59
2022/05/21 11:25:58;;;;;;;12.47;7.50;;;;;;;19.35;93.51;99197.92;1628244;87;21073;-59
2022/05/21 11:28:36;;;;;;;13.40;8.53;;;;;;;19.47;93.43;99197.58;1606123;87;21025;-59
2022/05/21 11:31:13;;;;;;;20.50;12.13;;;;;;;19.57;93.25;99194.81;1636306;86;21041;-60
2022/05/21 11:39:20;;;;;;;12.88;8.50;;;;;;;19.89;92.67;99181.83;1634337;85;21157;-58
2022/05/21 11:42:01;;;;;;;12.37;9.35;;;;;;;19.97;92.53;99165.92;1662099;84;21618;-58
2022/05/21 11:44:58;;;;;;;16.77;12.47;;;;;;;20.04;92.07;99153.08;1667917;86;21009;-57
2022/05/21 11:47:53;;;;;;;20.82;16.70;;;;;;;20.08;91.38;99156.94;1667695;86;21449;-59
2022/05/21 11:50:28;;;;;;;18.87;15.75;;;;;;;20.07;90.14;99160.84;1667674;86;21021;-56
2022/05/21 11:53:08;;;;;;;17.10;15.23;;;;;;;20.06;89.89;99164.75;1667716;86;21039;-57
2022/05/21 11:56:10;;;;;;;16.75;13.28;;;;;;;20.03;88.70;99161.98;1667679;84;20986;-57
2022/05/21 11:59:04;;;;;;;11.93;9.00;;;;;;;19.99;88.43;99154.52;1667578;86;20967;-56
2022/05/21 12:01:47;;;;;;;9.63;6.95;;;;;;;19.98;88.82;99140.34;1686388;83;21075;-58
2022/05/21 12:04:43;;;;;;;8.23;6.90;;;;;;;19.98;88.72;99123.66;1688024;85;21031;-59
2022/05/21 12:07:36;;;;;;;12.18;8.20;;;;;;;19.99;88.30;99123.93;1688124;85;21015;-59
2022/05/21 12:10:30;;;;;;;10.85;7.28;;;;;;;19.97;87.69;99117.83;1708256;82;21000;-59
2022/05/21 12:13:15;;;;;;;10.00;6.67;;;;;;;19.94;87.49;99117.30;1664108;86;21441;-60
2022/05/21 12:15:53;;;;;;;10.53;7.05;;;;;;;19.95;87.87;99110.61;1656718;86;21005;-58
2022/05/21 12:18:44;;;;;;;11.90;6.23;;;;;;;20.11;88.74;99092.41;1690790;83;21000;-57
2022/05/21 12:21:40;;;;;;;8.88;5.97;;;;;;;20.11;88.74;99092.41;1688085;85;21015;-57
2022/05/21 12:24:36;;;;;;;8.10;6.67;;;;;;;20.21;87.58;99084.82;1688117;85;21011;-59
2022/05/21 12:27:23;;;;;;;8.05;5.75;;;;;;;20.34;86.86;99084.69;1688032;85;21056;-57
2022/05/21 12:30:01;;;;;;;7.78;6.22;;;;;;;20.43;85.40;99073.78;1688448;85;21019;-57
2022/05/21 12:32:32;;;;;;;9.53;6.33;;;;;;;20.50;85.11;99071.48;1688195;85;20976;-60
2022/05/21 12:35:21;;;;;;;7.65;5.87;;;;;;;20.58;85.49;99076.39;1688159;85;21000;-59
2022/05/21 12:37:51;;;;;;;8.80;6.28;;;;;;;20.70;86.04;99070.41;1688004;85;21051;-62